Time;durP1;ratioP1;P1;durP2;ratioP2;P2;SDS_P1;SDS_P2;PMS_P1;PMS_P2;Temp;Humidity;BMP_temperature;BMP_pressure;BME280_temperature;BME280_humidity;BME280_pressure;Samples;Min_cycle;Max_cycle;Signal;HPM_P1;HPM_P2
2024/03/12 00:00:21;;;;;;;1.70;0.80;;;10.40;71.20;;;;;;2340769;54;21723;-66
2024/03/12 00:02:50;;;;;;;1.83;0.85;;;10.40;71.20;;;;;;2308185;54;20997;-66
2024/03/12 00:05:18;;;;;;;2.08;0.95;;;10.50;71.30;;;;;;2303818;54;21065;-65
2024/03/12 00:07:48;;;;;;;;;;;10.50;71.30;;;;;;2311709;54;20951;-66
2024/03/12 00:10:16;;;;;;;2.67;1.02;;;10.50;69.80;;;;;;2308715;54;20100;-65
2024/03/12 00:12:53;;;;;;;2.70;1.10;;;10.50;71.30;;;;;;2308711;54;20967;-66
2024/03/12 00:15:21;;;;;;;2.10;0.85;;;10.50;71.30;;;;;;2547937;53;20992;-65
2024/03/12 00:17:49;;;;;;;2.15;0.80;;;10.50;71.30;;;;;;2547202;53;20959;-65
2024/03/12 00:20:24;;;;;;;7.47;1.52;;;10.50;71.40;;;;;;2308525;55;21696;-65
2024/03/12 00:22:50;;;;;;;3.55;1.17;;;10.50;71.40;;;;;;2546301;54;20965;-65
2024/03/12 00:25:19;;;;;;;1.73;0.80;;;10.50;72.10;;;;;;2553945;53;20999;-65
2024/03/12 00:27:46;;;;;;;2.60;0.98;;;10.50;71.50;;;;;;2339613;54;21767;-65
2024/03/12 00:30:13;;;;;;;2.10;0.80;;;10.50;71.40;;;;;;2587099;53;21797;-66
2024/03/12 00:32:43;;;;;;;2.53;1.15;;;10.50;71.50;;;;;;2339757;54;21371;-66
2024/03/12 00:35:12;;;;;;;2.17;0.98;;;10.50;71.40;;;;;;2340804;54;21430;-65
2024/03/12 00:37:38;;;;;;;3.33;1.30;;;10.50;71.40;;;;;;2340019;54;21269;-65
2024/03/12 00:40:11;;;;;;;2.67;1.20;;;10.50;71.40;;;;;;2586258;53;21333;-65
2024/03/12 00:42:41;;;;;;;1.90;0.93;;;10.50;71.40;;;;;;2340432;54;21399;-65
2024/03/12 00:45:12;;;;;;;3.35;1.10;;;10.50;71.40;;;;;;2340507;54;21072;-66
2024/03/12 00:47:39;;;;;;;2.62;1.10;;;10.50;71.40;;;;;;2586137;53;20952;-66
2024/03/12 00:50:09;;;;;;;3.65;1.30;;;10.50;71.50;;;;;;2586459;53;21028;-66
2024/03/12 00:52:53;;;;;;;2.95;1.20;;;10.50;71.60;;;;;;2340421;54;21720;-65
2024/03/12 00:55:23;;;;;;;1.92;1.00;;;10.50;71.60;;;;;;2341039;54;20953;-66
2024/03/12 00:57:50;;;;;;;2.97;1.23;;;10.50;71.60;;;;;;2340031;54;20988;-65
2024/03/12 01:00:17;;;;;;;3.25;1.40;;;10.50;71.70;;;;;;2586683;53;21006;-66
2024/03/12 01:02:49;;;;;;;2.50;1.10;;;10.50;71.70;;;;;;2334022;54;21227;-67
2024/03/12 01:05:20;;;;;;;2.33;1.02;;;10.60;71.80;;;;;;2324730;54;20937;-66
2024/03/12 01:07:52;;;;;;;3.75;1.27;;;10.60;71.70;;;;;;2585578;53;20964;-65
2024/03/12 01:10:20;;;;;;;2.35;1.10;;;10.60;71.80;;;;;;2339866;54;21036;-66
2024/03/12 01:12:50;;;;;;;2.45;1.20;;;10.70;71.90;;;;;;2586442;53;21007;-66
2024/03/12 01:15:18;;;;;;;2.83;1.20;;;10.60;71.80;;;;;;2586349;53;20948;-66
2024/03/12 01:17:45;;;;;;;3.45;1.00;;;10.60;71.70;;;;;;2586207;53;21013;-66
2024/03/12 01:20:11;;;;;;;2.53;1.05;;;10.60;71.70;;;;;;2340201;54;20957;-65
2024/03/12 01:22:38;;;;;;;3.00;1.30;;;10.60;71.70;;;;;;2339661;54;20936;-66
2024/03/12 01:25:08;;;;;;;2.30;1.10;;;10.60;71.70;;;;;;2340700;54;20953;-65
2024/03/12 01:27:38;;;;;;;2.87;1.05;;;10.60;71.50;;;;;;2337618;54;20933;-65
2024/03/12 01:30:13;;;;;;;2.72;1.15;;;10.60;71.50;;;;;;2339840;54;21283;-66
2024/03/12 01:32:41;;;;;;;3.35;1.30;;;10.60;71.60;;;;;;2339507;54;21265;-65
2024/03/12 01:35:13;;;;;;;3.20;1.23;;;10.60;71.60;;;;;;2335141;54;20991;-66
2024/03/12 01:37:41;;;;;;;2.87;1.10;;;10.60;71.60;;;;;;2563639;53;21819;-66
2024/03/12 01:40:25;;;;;;;2.60;1.08;;;10.60;71.50;;;;;;2340197;54;20961;-66
2024/03/12 01:42:53;;;;;;;2.87;1.02;;;10.60;71.50;;;;;;2586143;53;21768;-66
2024/03/12 01:45:22;;;;;;;4.32;1.70;;;10.60;71.50;;;;;;2339898;54;21557;-66
2024/03/12 01:47:52;;;;;;;3.40;1.20;;;10.60;71.50;;;;;;2584937;53;21351;-65
2024/03/12 01:50:20;;;;;;;2.40;1.12;;;10.60;71.50;;;;;;2340245;54;20944;-65
2024/03/12 01:52:47;;;;;;;2.47;1.25;;;10.60;71.50;;;;;;2340489;54;20961;-65
2024/03/12 01:55:13;;;;;;;3.15;1.10;;;10.60;71.60;;;;;;2583476;53;21521;-65
2024/03/12 01:57:41;;;;;;;2.70;1.20;;;10.60;71.60;;;;;;2555792;53;20944;-66
2024/03/12 02:00:13;;;;;;;2.42;1.10;;;10.60;71.60;;;;;;2340107;54;21012;-66
2024/03/12 02:02:40;;;;;;;2.25;1.02;;;10.60;71.60;;;;;;2340111;54;21004;-65
2024/03/12 02:05:07;;;;;;;2.87;1.10;;;10.60;71.60;;;;;;2585962;53;20949;-66
2024/03/12 02:07:40;;;;;;;1.90;1.00;;;10.60;71.70;;;;;;2341085;54;21016;-65
2024/03/12 02:10:09;;;;;;;2.05;1.00;;;10.60;71.50;;;;;;2341961;54;21572;-66
2024/03/12 02:12:36;;;;;;;2.58;1.08;;;10.60;71.70;;;;;;2341933;54;20957;-66
2024/03/12 02:15:05;;;;;;;2.22;0.98;;;10.60;71.70;;;;;;2313152;54;20949;-65
2024/03/12 02:17:31;;;;;;;2.50;1.00;;;10.60;71.50;;;;;;2308439;54;21048;-65
2024/03/12 02:19:59;;;;;;;1.98;0.90;;;10.60;71.50;;;;;;2546352;54;21529;-65
2024/03/12 02:22:27;;;;;;;2.50;0.93;;;10.60;71.40;;;;;;2303350;54;21065;-65
2024/03/12 02:24:58;;;;;;;2.37;1.12;;;10.60;71.40;;;;;;2307276;54;21712;-65
2024/03/12 02:27:25;;;;;;;2.50;1.30;;;10.60;71.40;;;;;;2547677;54;20942;-66
2024/03/12 02:29:52;;;;;;;2.95;1.75;;;10.60;71.30;;;;;;2547041;54;20971;-66
2024/03/12 02:32:18;;;;;;;3.15;1.52;;;10.60;71.40;;;;;;2547549;54;21733;-65
2024/03/12 02:34:44;;;;;;;3.87;1.70;;;10.60;71.40;;;;;;2546688;54;21306;-65
2024/03/12 02:37:11;;;;;;;3.35;1.77;;;10.60;71.50;;;;;;2547241;54;21430;-65
2024/03/12 02:39:37;;;;;;;4.22;1.65;;;10.60;71.60;;;;;;2547749;54;20983;-65
2024/03/12 02:42:03;;;;;;;3.60;1.70;;;10.60;71.60;;;;;;2547231;54;21785;-66
2024/03/12 02:44:29;;;;;;;3.45;1.90;;;10.60;71.70;;;;;;2308704;54;21356;-65
2024/03/12 02:47:03;;;;;;;3.33;1.80;;;10.60;71.80;;;;;;2308105;54;20952;-66
2024/03/12 02:49:29;;;;;;;3.20;1.62;;;10.60;71.70;;;;;;2309698;54;21374;-66
2024/03/12 02:51:55;;;;;;;4.28;1.90;;;10.60;71.90;;;;;;2546627;53;21004;-66
2024/03/12 02:54:21;;;;;;;3.03;1.30;;;10.60;71.90;;;;;;2308084;55;20904;-66
2024/03/12 02:56:48;;;;;;;3.92;1.87;;;10.60;71.90;;;;;;2535068;53;21017;-66
2024/03/12 02:59:14;;;;;;;3.40;1.90;;;10.60;72.00;;;;;;2287657;55;21077;-66
2024/03/12 03:01:41;;;;;;;5.78;1.83;;;10.60;72.00;;;;;;2307877;55;21342;-65
2024/03/12 03:04:11;;;;;;;5.50;2.25;;;10.70;72.20;;;;;;2308054;55;21494;-66
2024/03/12 03:06:37;;;;;;;3.33;1.83;;;10.70;72.20;;;;;;2308538;55;20970;-66
2024/03/12 03:09:07;;;;;;;3.83;1.90;;;10.70;72.30;;;;;;2546428;54;21042;-65
2024/03/12 03:11:33;;;;;;;3.33;1.77;;;10.70;72.30;;;;;;2308717;54;20967;-65
2024/03/12 03:14:01;;;;;;;4.10;1.90;;;10.70;72.40;;;;;;2306215;54;21103;-66
2024/03/12 03:16:31;;;;;;;3.12;1.60;;;10.80;72.40;;;;;;2308499;54;20955;-66
2024/03/12 03:18:57;;;;;;;3.03;1.80;;;10.80;72.50;;;;;;2313091;54;20979;-66
2024/03/12 03:21:27;;;;;;;3.47;1.92;;;10.80;72.60;;;;;;2579482;53;21268;-66
2024/03/12 03:23:54;;;;;;;4.43;2.00;;;10.80;72.60;;;;;;2316400;54;21320;-66
2024/03/12 03:26:20;;;;;;;3.20;1.67;;;10.90;72.70;;;;;;2339822;54;20969;-66
2024/03/12 03:28:48;;;;;;;4.15;2.12;;;10.90;72.70;;;;;;2585392;53;20949;-65
2024/03/12 03:31:14;;;;;;;3.17;1.70;;;10.90;72.80;;;;;;2340273;54;21004;-66
2024/03/12 03:33:43;;;;;;;4.80;1.87;;;11.00;72.90;;;;;;2562656;53;21289;-66
2024/03/12 03:36:09;;;;;;;3.67;1.77;;;11.00;72.90;;;;;;2577942;53;21012;-66
2024/03/12 03:38:40;;;;;;;2.78;1.55;;;11.00;72.90;;;;;;2585810;53;20992;-65
2024/03/12 03:41:07;;;;;;;3.37;1.73;;;11.00;72.90;;;;;;2340150;54;21019;-66
2024/03/12 03:43:34;;;;;;;3.42;1.83;;;11.10;72.90;;;;;;2585669;53;21449;-66
2024/03/12 03:46:00;;;;;;;3.35;1.92;;;11.10;72.90;;;;;;2339607;54;20953;-67
2024/03/12 03:48:29;;;;;;;3.50;2.10;;;11.10;72.80;;;;;;2586800;53;21253;-66
2024/03/12 03:50:56;;;;;;;3.67;2.08;;;11.10;72.80;;;;;;2315616;55;20943;-65
2024/03/12 03:53:24;;;;;;;4.95;2.33;;;11.10;72.80;;;;;;2340171;54;20965;-67
2024/03/12 03:55:50;;;;;;;3.72;1.90;;;11.20;72.90;;;;;;2315936;54;21005;-66
2024/03/12 03:58:18;;;;;;;4.32;1.92;;;11.20;72.80;;;;;;2341014;54;21304;-66
2024/03/12 04:00:44;;;;;;;3.95;2.20;;;11.20;72.80;;;;;;2586488;53;20932;-66
2024/03/12 04:03:10;;;;;;;4.62;2.08;;;11.20;72.70;;;;;;2547327;54;21003;-66
2024/03/12 04:05:37;;;;;;;3.95;1.90;;;11.20;72.70;;;;;;2308547;54;20999;-66
2024/03/12 04:08:03;;;;;;;3.87;1.98;;;11.20;72.70;;;;;;2308286;54;21026;-67
2024/03/12 04:10:32;;;;;;;3.40;1.90;;;11.20;72.70;;;;;;2309063;54;21769;-66
2024/03/12 04:12:59;;;;;;;3.85;2.17;;;11.20;72.80;;;;;;2308028;54;21326;-65
2024/03/12 04:15:28;;;;;;;3.92;1.90;;;11.30;72.90;;;;;;2308945;54;20959;-66
2024/03/12 04:17:57;;;;;;;4.30;2.20;;;11.30;72.90;;;;;;2308609;54;21258;-67
2024/03/12 04:20:24;;;;;;;4.07;1.83;;;11.30;72.80;;;;;;2308339;54;21023;-66
2024/03/12 04:22:50;;;;;;;3.22;1.90;;;11.30;72.80;;;;;;2546770;54;20989;-67
2024/03/12 04:25:17;;;;;;;4.25;2.35;;;11.30;72.80;;;;;;2309269;54;21452;-67
2024/03/12 04:27:45;;;;;;;3.60;2.00;;;11.30;72.70;;;;;;2309177;54;21012;-66
2024/03/12 04:30:12;;;;;;;5.87;2.05;;;11.40;72.80;;;;;;2308726;54;20991;-67
2024/03/12 04:32:39;;;;;;;3.58;1.98;;;11.40;72.90;;;;;;2308788;54;21437;-66
2024/03/12 04:35:09;;;;;;;4.95;2.20;;;11.40;72.80;;;;;;2546205;53;21413;-66
2024/03/12 04:37:36;;;;;;;4.12;2.20;;;11.40;72.70;;;;;;2545625;54;21284;-66
2024/03/12 04:40:09;;;;;;;4.65;2.03;;;11.40;72.70;;;;;;2306434;54;20979;-65
2024/03/12 04:42:36;;;;;;;4.25;2.42;;;11.40;72.70;;;;;;2546601;54;21156;-66
2024/03/12 04:45:06;;;;;;;3.92;2.25;;;11.40;72.60;;;;;;2314904;55;21039;-67
2024/03/12 04:47:33;;;;;;;5.05;1.87;;;11.40;72.60;;;;;;2313416;55;21390;-67
2024/03/12 04:50:04;;;;;;;3.97;2.03;;;11.40;72.60;;;;;;2339781;54;22173;-66
2024/03/12 04:52:33;;;;;;;3.67;2.00;;;11.40;72.60;;;;;;2341210;54;21096;-67
2024/03/12 04:55:00;;;;;;;3.55;2.15;;;11.40;72.60;;;;;;2340266;54;21023;-65
2024/03/12 04:57:26;;;;;;;4.28;2.42;;;11.40;72.80;;;;;;2341133;54;20944;-66
2024/03/12 04:59:54;;;;;;;4.50;2.53;;;11.40;72.60;;;;;;2585705;53;20960;-66
2024/03/12 05:02:20;;;;;;;4.37;2.17;;;11.40;72.60;;;;;;2586677;53;21481;-66
2024/03/12 05:04:47;;;;;;;4.28;2.60;;;11.40;72.60;;;;;;2586963;53;20957;-66
2024/03/12 05:07:13;;;;;;;4.50;2.10;;;11.40;72.60;;;;;;2339323;54;21018;-65
2024/03/12 05:09:40;;;;;;;3.40;2.00;;;11.40;72.60;;;;;;2339318;54;21015;-65
2024/03/12 05:12:07;;;;;;;3.50;2.05;;;11.40;72.60;;;;;;2339905;54;21008;-66
2024/03/12 05:14:33;;;;;;;4.10;2.15;;;11.40;72.60;;;;;;2586420;53;20949;-65
2024/03/12 05:17:00;;;;;;;4.60;2.17;;;11.40;72.60;;;;;;2585164;53;20944;-65
2024/03/12 05:19:26;;;;;;;4.18;1.98;;;11.40;72.70;;;;;;2585182;53;21008;-66
2024/03/12 05:21:52;;;;;;;4.03;1.98;;;11.40;72.60;;;;;;2586603;53;21414;-66
2024/03/12 05:24:19;;;;;;;4.28;1.80;;;11.40;72.70;;;;;;2340524;54;20936;-67
2024/03/12 05:26:49;;;;;;;3.90;2.25;;;11.40;72.80;;;;;;2556385;53;21046;-67
2024/03/12 05:29:15;;;;;;;4.90;2.50;;;11.40;72.70;;;;;;2583721;53;21505;-65
2024/03/12 05:31:42;;;;;;;4.18;2.20;;;11.40;72.60;;;;;;2340779;54;20937;-66
2024/03/12 05:34:28;;;;;;;3.78;1.90;;;11.40;72.70;;;;;;2339828;54;21735;-67
2024/03/12 05:37:04;;;;;;;3.50;2.10;;;11.40;72.60;;;;;;2340137;54;21229;-66
2024/03/12 05:39:47;;;;;;;4.28;2.45;;;11.40;72.70;;;;;;2340546;54;20965;-66
2024/03/12 05:50:31;;;;;;;6.43;3.10;;;11.40;72.70;;;;;;2585754;53;21000;-65
2024/03/12 05:52:59;;;;;;;8.05;3.95;;;11.40;72.70;;;;;;2339931;54;20980;-66
2024/03/12 05:55:25;;;;;;;6.40;3.40;;;11.40;72.70;;;;;;2340597;54;20980;-66
2024/03/12 05:57:53;;;;;;;5.03;2.95;;;11.40;72.80;;;;;;2586901;53;21024;-66
2024/03/12 06:00:20;;;;;;;5.40;2.67;;;11.40;72.80;;;;;;2340908;54;20921;-66
2024/03/12 06:02:49;;;;;;;5.25;2.55;;;11.40;72.90;;;;;;2340915;54;21307;-65
2024/03/12 06:05:16;;;;;;;4.80;2.55;;;11.40;72.90;;;;;;2340161;54;21060;-66
2024/03/12 06:07:44;;;;;;;4.72;2.28;;;11.50;72.90;;;;;;2586764;53;21020;-66
2024/03/12 06:10:11;;;;;;;5.25;2.35;;;11.40;72.90;;;;;;2585564;53;21149;-66
2024/03/12 06:12:38;;;;;;;5.12;2.17;;;11.50;73.10;;;;;;2342687;54;21173;-65
2024/03/12 06:15:07;;;;;;;3.83;2.08;;;11.50;73.00;;;;;;2315055;54;20993;-67
2024/03/12 06:17:33;;;;;;;3.75;2.15;;;11.50;73.00;;;;;;2342979;54;20990;-65
2024/03/12 06:20:00;;;;;;;3.60;1.85;;;11.50;73.00;;;;;;2313688;54;20945;-65
2024/03/12 06:22:28;;;;;;;3.60;1.80;;;11.50;72.90;;;;;;2553866;53;21176;-66
2024/03/12 06:24:55;;;;;;;3.83;1.83;;;11.50;72.90;;;;;;2340568;54;20929;-66
2024/03/12 06:27:24;;;;;;;3.28;1.60;;;11.50;72.90;;;;;;2337853;54;20948;-67
2024/03/12 06:29:51;;;;;;;3.90;2.20;;;11.50;72.90;;;;;;2340589;54;21008;-66
2024/03/12 06:32:20;;;;;;;4.82;2.28;;;11.50;72.90;;;;;;2585756;53;21616;-66
2024/03/12 06:34:47;;;;;;;5.20;2.10;;;11.50;72.90;;;;;;2340678;54;21645;-67
2024/03/12 06:37:15;;;;;;;4.22;2.28;;;11.50;72.80;;;;;;2586011;53;20932;-66
2024/03/12 06:39:44;;;;;;;3.72;1.83;;;11.50;72.80;;;;;;2586117;53;21004;-66
2024/03/12 06:42:12;;;;;;;4.10;2.00;;;11.50;72.80;;;;;;2338530;54;21434;-66
2024/03/12 06:44:42;;;;;;;4.07;2.25;;;11.50;72.90;;;;;;2585539;53;21028;-66
2024/03/12 06:47:09;;;;;;;4.10;2.40;;;11.50;72.80;;;;;;2339506;54;21036;-67
2024/03/12 06:49:38;;;;;;;4.12;2.10;;;11.50;72.80;;;;;;2340134;54;21012;-66
2024/03/12 06:52:06;;;;;;;4.20;2.05;;;11.60;72.90;;;;;;2339563;54;21882;-66
2024/03/12 06:54:34;;;;;;;4.57;2.17;;;11.50;73.20;;;;;;2339823;54;21280;-67
2024/03/12 06:57:01;;;;;;;4.80;2.30;;;11.60;73.00;;;;;;2586069;53;20933;-66
2024/03/12 06:59:27;;;;;;;4.87;2.05;;;11.60;73.00;;;;;;2341093;54;21386;-67
2024/03/12 07:01:55;;;;;;;3.75;1.90;;;11.60;73.00;;;;;;2339918;54;20997;-66
2024/03/12 07:04:23;;;;;;;4.47;2.30;;;11.60;73.10;;;;;;2339776;54;20991;-66
2024/03/12 07:06:51;;;;;;;3.67;2.00;;;11.60;73.00;;;;;;2586315;53;21039;-66
2024/03/12 07:09:30;;;;;;;2.75;1.62;;;11.60;73.00;;;;;;2584852;53;21256;-66
2024/03/12 07:11:58;;;;;;;3.45;1.70;;;11.60;73.00;;;;;;2586292;53;20917;-65
2024/03/12 07:14:30;;;;;;;3.00;1.62;;;11.60;73.00;;;;;;2339915;54;21641;-66
2024/03/12 07:16:56;;;;;;;2.92;1.50;;;11.50;72.90;;;;;;2340165;54;21013;-65
2024/03/12 07:19:23;;;;;;;3.00;1.45;;;11.60;73.00;;;;;;2340104;54;21024;-66
2024/03/12 07:21:54;;;;;;;3.60;1.52;;;11.60;73.10;;;;;;2340000;54;20996;-65
2024/03/12 07:24:21;;;;;;;3.97;2.00;;;11.60;73.00;;;;;;2586275;53;20980;-67
2024/03/12 07:26:47;;;;;;;3.40;1.62;;;11.60;73.00;;;;;;2586828;53;21256;-66
2024/03/12 07:29:14;;;;;;;3.67;1.83;;;11.60;73.00;;;;;;2339879;54;21008;-66
2024/03/12 07:31:41;;;;;;;3.15;1.60;;;11.60;73.00;;;;;;2545327;53;20944;-67
2024/03/12 07:34:07;;;;;;;3.25;1.83;;;11.60;73.60;;;;;;2321558;54;21000;-66
2024/03/12 07:36:33;;;;;;;3.03;1.65;;;11.60;72.90;;;;;;2340067;54;20957;-66
2024/03/12 07:39:02;;;;;;;3.80;1.80;;;11.60;72.90;;;;;;2586520;53;21291;-65
2024/03/12 07:41:39;;;;;;;3.00;1.65;;;11.60;72.90;;;;;;2340871;54;21019;-66
2024/03/12 07:44:06;;;;;;;2.80;1.40;;;11.60;72.90;;;;;;2340507;54;21076;-65
2024/03/12 07:46:34;;;;;;;3.12;1.60;;;11.70;73.10;;;;;;2540583;54;20963;-65
2024/03/12 07:49:00;;;;;;;3.22;1.42;;;11.70;73.20;;;;;;2544896;54;21449;-66
2024/03/12 07:51:29;;;;;;;4.00;1.87;;;11.70;73.10;;;;;;2546249;54;21047;-66
2024/03/12 07:53:55;;;;;;;3.33;1.70;;;11.70;73.10;;;;;;2547225;54;20974;-66
2024/03/12 07:56:23;;;;;;;3.10;1.80;;;11.70;73.10;;;;;;2546359;54;21450;-66
2024/03/12 07:58:49;;;;;;;2.50;1.30;;;11.70;73.10;;;;;;2301071;54;20995;-67
2024/03/12 08:01:16;;;;;;;3.33;1.55;;;11.70;73.00;;;;;;2313092;55;21023;-67
2024/03/12 08:03:43;;;;;;;3.60;1.58;;;11.70;73.00;;;;;;2308291;55;21819;-66
2024/03/12 08:06:10;;;;;;;3.67;1.65;;;11.70;73.00;;;;;;2335981;54;21414;-66
2024/03/12 08:08:36;;;;;;;3.65;1.65;;;11.70;73.00;;;;;;2313961;55;21327;-65
2024/03/12 08:11:04;;;;;;;3.80;1.50;;;11.80;73.10;;;;;;2586821;53;20984;-65
2024/03/12 08:13:31;;;;;;;3.37;1.60;;;11.80;73.10;;;;;;2339553;54;21766;-65
2024/03/12 08:15:58;;;;;;;3.35;1.62;;;11.80;73.10;;;;;;2585123;53;21354;-66
2024/03/12 08:18:24;;;;;;;3.75;1.80;;;11.80;73.10;;;;;;2339017;54;20996;-65
2024/03/12 08:20:52;;;;;;;3.10;1.52;;;11.80;73.00;;;;;;2341068;54;21466;-66
2024/03/12 08:23:19;;;;;;;2.80;1.45;;;11.80;73.00;;;;;;2334818;54;20991;-67
2024/03/12 08:25:46;;;;;;;3.42;1.48;;;11.80;72.90;;;;;;2564820;53;21364;-66
2024/03/12 08:28:16;;;;;;;3.28;1.58;;;11.80;72.90;;;;;;2585302;53;21616;-66
2024/03/12 08:30:46;;;;;;;3.05;1.33;;;11.80;72.90;;;;;;2340496;54;20956;-66
2024/03/12 08:33:13;;;;;;;2.92;1.30;;;11.90;73.00;;;;;;2585688;53;21667;-66
2024/03/12 08:35:39;;;;;;;2.75;1.10;;;11.90;73.00;;;;;;2340479;54;20953;-66
2024/03/12 08:38:06;;;;;;;2.67;1.02;;;11.90;72.90;;;;;;2340805;54;21213;-67
2024/03/12 08:40:33;;;;;;;2.20;1.05;;;11.90;72.90;;;;;;2585931;53;20917;-66
2024/03/12 08:43:00;;;;;;;3.87;1.40;;;11.90;72.90;;;;;;2334117;54;21001;-67
2024/03/12 08:45:27;;;;;;;2.50;1.00;;;11.90;73.00;;;;;;2303763;55;21826;-67
2024/03/12 08:47:53;;;;;;;2.10;0.90;;;11.90;73.00;;;;;;2340740;54;20968;-66
2024/03/12 08:50:23;;;;;;;2.37;1.00;;;11.90;73.30;;;;;;2585689;53;20952;-67
2024/03/12 08:52:50;;;;;;;3.17;1.17;;;11.90;73.00;;;;;;2586863;53;21001;-65
2024/03/12 08:55:19;;;;;;;2.67;0.98;;;11.90;73.10;;;;;;2339394;54;21866;-66
2024/03/12 08:57:46;;;;;;;2.33;1.00;;;12.00;73.10;;;;;;2585682;53;20976;-66
2024/03/12 09:00:15;;;;;;;3.15;1.20;;;12.00;73.10;;;;;;2339660;54;21477;-66
2024/03/12 09:02:41;;;;;;;3.22;1.17;;;12.00;73.00;;;;;;2340269;54;20948;-66
2024/03/12 09:05:09;;;;;;;2.75;1.20;;;12.00;73.00;;;;;;2571837;53;21567;-65
2024/03/12 09:07:38;;;;;;;3.17;1.35;;;12.00;73.00;;;;;;2326022;54;20909;-66
2024/03/12 09:10:12;;;;;;;3.28;1.10;;;12.00;73.00;;;;;;2586469;53;21288;-66
2024/03/12 09:12:40;;;;;;;2.72;1.12;;;12.00;73.00;;;;;;2586361;53;21786;-66
2024/03/12 09:15:10;;;;;;;2.83;1.30;;;12.10;73.10;;;;;;2585818;53;20984;-66
2024/03/12 09:17:37;;;;;;;3.35;1.20;;;12.10;73.10;;;;;;2340167;54;20965;-65
2024/03/12 09:20:10;;;;;;;3.30;1.20;;;12.00;73.00;;;;;;2340674;54;21020;-66
2024/03/12 09:22:37;;;;;;;2.70;1.15;;;12.10;73.10;;;;;;2339675;54;21241;-66
2024/03/12 09:25:08;;;;;;;2.80;1.30;;;12.10;73.00;;;;;;2586449;53;20953;-68
2024/03/12 09:27:34;;;;;;;2.62;1.25;;;12.10;73.00;;;;;;2340649;54;21037;-67
2024/03/12 09:30:00;;;;;;;3.40;1.50;;;12.10;73.00;;;;;;2340519;54;21521;-66
2024/03/12 09:32:27;;;;;;;3.55;1.52;;;12.10;72.90;;;;;;2585993;53;20973;-67
2024/03/12 09:34:53;;;;;;;3.20;1.50;;;12.10;72.90;;;;;;2341097;54;21805;-67
2024/03/12 09:37:20;;;;;;;3.53;1.55;;;12.10;73.00;;;;;;2339933;54;20957;-66
2024/03/12 09:39:51;;;;;;;3.75;1.70;;;12.10;73.10;;;;;;2337075;54;20975;-66
2024/03/12 09:42:18;;;;;;;3.17;1.60;;;12.20;73.00;;;;;;2562780;53;21628;-65
2024/03/12 09:44:44;;;;;;;3.62;1.80;;;12.20;73.10;;;;;;2585301;53;21008;-66
2024/03/12 09:47:11;;;;;;;3.65;1.80;;;12.20;73.20;;;;;;2317884;55;21047;-65
2024/03/12 09:49:40;;;;;;;3.40;1.75;;;12.20;73.30;;;;;;2338632;54;21426;-66
2024/03/12 09:52:07;;;;;;;4.28;2.22;;;12.20;73.30;;;;;;2340999;54;21044;-67
2024/03/12 09:54:34;;;;;;;4.22;2.15;;;12.20;73.30;;;;;;2340656;54;20944;-66
2024/03/12 09:57:01;;;;;;;4.72;2.10;;;12.20;73.30;;;;;;2320713;54;20986;-66
2024/03/12 09:59:31;;;;;;;4.90;2.30;;;12.20;73.30;;;;;;2337065;54;20977;-65
2024/03/12 10:02:01;;;;;;;4.28;2.67;;;12.30;73.40;;;;;;2340151;54;20948;-65
2024/03/12 10:04:32;;;;;;;4.15;1.98;;;12.30;73.40;;;;;;2339749;54;21024;-66
2024/03/12 10:06:59;;;;;;;4.47;2.40;;;12.30;73.40;;;;;;2340706;54;20976;-65
2024/03/12 10:09:27;;;;;;;4.35;2.00;;;12.30;73.40;;;;;;2585593;53;21165;-65
2024/03/12 10:11:55;;;;;;;4.47;2.50;;;12.30;73.40;;;;;;2340345;54;21012;-66
2024/03/12 10:14:24;;;;;;;4.00;2.17;;;12.40;73.50;;;;;;2584725;53;21009;-67
2024/03/12 10:16:50;;;;;;;3.87;2.05;;;12.40;74.20;;;;;;2340849;54;21781;-67
2024/03/12 10:19:25;;;;;;;4.90;2.12;;;12.40;73.50;;;;;;2340684;54;20980;-66
2024/03/12 10:21:53;;;;;;;3.37;1.92;;;12.40;73.40;;;;;;2340915;54;21000;-66
2024/03/12 10:24:22;;;;;;;3.30;1.52;;;12.50;73.70;;;;;;2340011;54;20996;-66
2024/03/12 10:26:49;;;;;;;3.92;1.90;;;12.50;73.70;;;;;;2586883;53;20928;-66
2024/03/12 10:29:18;;;;;;;7.97;2.28;;;12.50;73.80;;;;;;2340115;54;20933;-67
2024/03/12 10:31:47;;;;;;;3.53;1.80;;;12.50;73.70;;;;;;2586881;53;21592;-67
2024/03/12 10:34:20;;;;;;;3.60;2.05;;;12.50;73.70;;;;;;2331797;54;21365;-66
2024/03/12 10:36:48;;;;;;;6.47;2.70;;;12.50;73.90;;;;;;2327473;54;21478;-67
2024/03/12 10:39:28;;;;;;;4.47;2.22;;;12.60;74.10;;;;;;2340869;54;21789;-66
2024/03/12 10:42:00;;;;;;;5.28;2.42;;;12.60;73.80;;;;;;2340368;54;20953;-66
2024/03/12 10:44:27;;;;;;;5.20;2.92;;;12.70;74.00;;;;;;2340647;54;20957;-65
2024/03/12 10:46:55;;;;;;;5.43;2.50;;;12.70;74.20;;;;;;2340879;54;21465;-67
2024/03/12 10:49:23;;;;;;;5.07;2.85;;;12.70;74.20;;;;;;2339723;54;20996;-67
2024/03/12 10:51:50;;;;;;;4.90;2.62;;;12.70;74.10;;;;;;2316847;54;20946;-67
2024/03/12 10:54:17;;;;;;;5.25;2.97;;;12.80;74.10;;;;;;2586484;53;21024;-68
2024/03/12 10:56:45;;;;;;;6.43;3.75;;;12.80;74.20;;;;;;2340589;54;21516;-67
2024/03/12 10:59:16;;;;;;;6.15;3.50;;;12.80;74.00;;;;;;2340168;54;21772;-66
2024/03/12 11:01:45;;;;;;;6.32;3.25;;;12.90;74.10;;;;;;2338383;54;21267;-66
2024/03/12 11:04:13;;;;;;;5.97;3.33;;;12.90;74.10;;;;;;2554728;53;21336;-67
2024/03/12 11:06:39;;;;;;;6.95;3.78;;;13.00;74.20;;;;;;2317788;54;20956;-66
2024/03/12 11:09:07;;;;;;;5.47;3.15;;;13.00;74.10;;;;;;2340658;54;20936;-67
2024/03/12 11:11:33;;;;;;;5.97;3.03;;;13.00;74.00;;;;;;2585987;53;21268;-67
2024/03/12 11:14:03;;;;;;;6.87;3.58;;;13.00;74.00;;;;;;2586078;53;21663;-66
2024/03/12 11:16:36;;;;;;;6.83;3.57;;;13.10;74.00;;;;;;2340696;54;20961;-67
2024/03/12 11:19:29;;;;;;;8.32;4.20;;;13.10;74.00;;;;;;2339947;54;20995;-67
2024/03/12 11:22:10;;;;;;;7.05;3.87;;;13.10;73.30;;;;;;2340132;54;20984;-66
2024/03/12 11:24:44;;;;;;;8.02;4.37;;;13.20;73.40;;;;;;2339775;54;21012;-67
2024/03/12 11:27:20;;;;;;;7.65;4.07;;;13.20;73.50;;;;;;2585196;53;21739;-66
2024/03/12 11:30:08;;;;;;;9.43;4.53;;;13.20;73.40;;;;;;2546304;54;21034;-65
2024/03/12 11:32:45;;;;;;;9.05;4.93;;;13.20;73.10;;;;;;2510053;54;21565;-66
2024/03/12 11:35:46;;;;;;;10.32;5.40;;;13.30;74.00;;;;;;2547294;54;20957;-66
2024/03/12 11:38:12;;;;;;;12.32;5.68;;;13.30;73.00;;;;;;2547166;54;20930;-67
2024/03/12 11:40:51;;;;;;;10.10;6.05;;;13.30;74.00;;;;;;2308155;55;21571;-67
2024/03/12 11:43:39;;;;;;;12.32;6.47;;;13.30;73.60;;;;;;2546408;54;21591;-66
2024/03/12 11:46:47;;;;;;;13.05;6.85;;;13.40;73.30;;;;;;2308790;54;20990;-65
2024/03/12 11:49:33;;;;;;;12.45;6.87;;;13.40;72.80;;;;;;2308065;54;21415;-67
2024/03/12 11:52:00;;;;;;;14.07;7.22;;;13.50;73.30;;;;;;2307722;54;21471;-66
2024/03/12 11:54:45;;;;;;;13.05;6.60;;;13.50;74.10;;;;;;2308238;54;20956;-67
2024/03/12 11:57:44;;;;;;;14.65;7.45;;;13.50;73.40;;;;;;2547865;54;21030;-66
2024/03/12 12:00:11;;;;;;;11.73;6.18;;;13.60;73.60;;;;;;2547059;54;20919;-66
2024/03/12 12:02:42;;;;;;;11.20;6.50;;;13.60;74.70;;;;;;2307793;54;21479;-67
2024/03/12 12:05:09;;;;;;;14.25;7.35;;;13.60;73.80;;;;;;2307992;54;20999;-66
2024/03/12 12:07:35;;;;;;;17.30;8.75;;;13.70;74.00;;;;;;2307876;54;21776;-67
2024/03/12 12:10:02;;;;;;;16.67;8.60;;;13.70;73.80;;;;;;2308270;54;21023;-67
2024/03/12 12:12:33;;;;;;;14.13;8.50;;;13.70;73.60;;;;;;2307909;54;20940;-66
2024/03/12 12:15:04;;;;;;;15.60;8.88;;;13.80;73.70;;;;;;2307972;54;20959;-67
2024/03/12 12:17:31;;;;;;;17.10;9.37;;;13.80;73.60;;;;;;2308266;54;21431;-65
2024/03/12 12:20:13;;;;;;;16.08;9.18;;;13.80;73.60;;;;;;2310045;54;21511;-65
2024/03/12 12:22:46;;;;;;;18.48;9.32;;;13.80;73.20;;;;;;2308183;54;20975;-67
2024/03/12 12:25:13;;;;;;;;;;;13.90;73.10;;;;;;2311993;54;21830;-67
2024/03/12 12:27:40;;;;;;;17.08;7.93;;;13.90;71.90;;;;;;2308320;54;20119;-66
2024/03/12 12:30:09;;;;;;;17.00;9.02;;;13.90;73.50;;;;;;2546925;54;21784;-66
2024/03/12 12:32:37;;;;;;;16.23;8.55;;;13.90;73.40;;;;;;2304539;54;20935;-67
2024/03/12 12:35:13;;;;;;;15.35;8.55;;;13.90;73.50;;;;;;2306831;54;21011;-67
2024/03/12 12:37:40;;;;;;;14.68;7.62;;;14.00;73.60;;;;;;2307959;54;21014;-66
2024/03/12 12:40:09;;;;;;;12.68;6.70;;;14.00;73.60;;;;;;2546646;54;21406;-66
2024/03/12 12:42:40;;;;;;;14.38;7.75;;;14.00;73.70;;;;;;2308019;54;21428;-68
2024/03/12 12:45:08;;;;;;;15.90;8.68;;;14.00;73.50;;;;;;2547574;54;21066;-66
2024/03/12 12:47:36;;;;;;;17.10;9.35;;;14.10;73.60;;;;;;2309792;54;20939;-67
2024/03/12 12:50:03;;;;;;;22.30;11.12;;;14.10;73.60;;;;;;2307413;54;20952;-67
2024/03/12 12:52:29;;;;;;;20.92;11.00;;;14.10;73.50;;;;;;2536418;54;20943;-68
2024/03/12 12:54:58;;;;;;;22.98;11.27;;;14.10;73.50;;;;;;2307703;54;20959;-67
2024/03/12 12:57:34;;;;;;;19.95;9.85;;;14.20;73.70;;;;;;2546791;54;20995;-67
2024/03/12 13:00:14;;;;;;;17.85;9.38;;;14.20;73.20;;;;;;2307913;54;20943;-66
2024/03/12 13:02:41;;;;;;;20.62;9.52;;;14.30;73.70;;;;;;2310552;54;21046;-67